Time;durP1;ratioP1;P1;durP2;ratioP2;P2;SDS_P1;SDS_P2;PMS_P1;PMS_P2;Temp;Humidity;BMP_temperature;BMP_pressure;BME280_temperature;BME280_humidity;BME280_pressure;Samples;Min_cycle;Max_cycle;Signal;HPM_P1;HPM_P2
2021/12/26 00:01:40;;;;;;;10.30;7.80;;;;;;;2.20;73.30;98788.02;24449;1354;3026204;-61
2021/12/26 00:04:13;;;;;;;10.70;8.40;;;;;;;2.75;71.16;98792.01;24465;1358;3049004;-61
2021/12/26 00:06:43;;;;;;;10.90;8.30;;;;;;;2.90;70.25;98804.91;24427;1354;3069183;-61
2021/12/26 00:09:13;;;;;;;11.70;8.40;;;;;;;2.81;70.33;98803.88;24468;1357;3026508;-59
2021/12/26 00:11:42;;;;;;;13.80;10.20;;;;;;;2.57;70.64;98812.58;24446;1359;3027288;-57
2021/12/26 00:14:11;;;;;;;14.10;10.10;;;;;;;2.09;72.00;98828.53;24489;1351;3026744;-56
2021/12/26 00:16:42;;;;;;;11.70;9.50;;;;;;;1.70;73.11;98831.45;24450;1354;3050612;-56
2021/12/26 00:19:11;;;;;;;11.80;9.20;;;;;;;1.15;75.12;98829.51;24449;1358;3026611;-58
2021/12/26 00:21:40;;;;;;;9.90;6.80;;;;;;;0.89;76.13;98847.02;24411;1354;3026949;-58
2021/12/26 00:24:09;;;;;;;6.50;5.10;;;;;;;0.60;76.45;98873.23;24428;1354;3048932;-60
2021/12/26 00:26:38;;;;;;;8.00;5.80;;;;;;;0.37;77.62;98888.02;24425;1354;3026179;-59
2021/12/26 00:29:07;;;;;;;6.10;4.00;;;;;;;0.32;77.97;98896.61;24457;1354;3026279;-58
2021/12/26 00:31:36;;;;;;;5.60;3.20;;;;;;;0.80;76.58;98877.98;24467;1354;3047205;-58
2021/12/26 00:34:05;;;;;;;6.10;3.60;;;;;;;1.63;73.72;98859.64;24454;1355;3026921;-57
2021/12/26 00:36:35;;;;;;;4.80;3.70;;;;;;;1.78;72.27;98842.73;24500;1357;3026482;-59
2021/12/26 00:39:04;;;;;;;5.20;3.70;;;;;;;1.60;72.37;98830.58;24432;1361;3026910;-59
2021/12/26 00:41:33;;;;;;;5.50;3.50;;;;;;;1.55;72.31;98827.98;24444;1354;3053338;-58
2021/12/26 00:44:03;;;;;;;5.80;3.70;;;;;;;1.31;71.96;98833.45;24455;1354;3026518;-59
2021/12/26 00:46:32;;;;;;;4.70;3.30;;;;;;;1.05;73.05;98831.87;24468;1354;3026978;-58
2021/12/26 00:49:02;;;;;;;6.00;3.60;;;;;;;0.97;72.70;98834.02;24458;1361;3026613;-60
2021/12/26 00:51:31;;;;;;;6.10;3.70;;;;;;;0.90;72.95;98821.11;24446;1354;3052372;-58
2021/12/26 00:53:59;;;;;;;9.10;4.10;;;;;;;0.77;73.43;98820.49;24465;1358;3026867;-59
2021/12/26 00:56:28;;;;;;;5.20;3.60;;;;;;;0.72;73.85;98817.38;24410;1357;3051725;-59
2021/12/26 00:58:57;;;;;;;5.10;3.80;;;;;;;0.72;73.44;98809.46;24450;1358;3026542;-60
2021/12/26 01:01:26;;;;;;;5.60;4.30;;;;;;;0.67;73.55;98807.52;24459;1353;3047058;-57
2021/12/26 01:03:56;;;;;;;5.80;3.60;;;;;;;0.61;74.04;98822.52;24362;1354;3026409;-57
2021/12/26 01:06:27;;;;;;;5.10;3.70;;;;;;;1.04;73.29;98833.13;24422;1351;3026660;-58
2021/12/26 01:08:56;;;;;;;5.00;3.30;;;;;;;1.60;71.41;98835.24;24453;1357;3048005;-59
2021/12/26 01:11:38;;;;;;;7.10;4.60;;;;;;;1.63;70.61;98837.38;24494;1355;3025992;-59
2021/12/26 01:14:10;;;;;;;7.40;4.00;;;;;;;1.46;71.07;98841.92;24386;1354;3068525;-57
2021/12/26 01:17:01;;;;;;;7.60;4.10;;;;;;;1.33;71.66;98849.09;24468;1354;3051274;-59
2021/12/26 01:19:43;;;;;;;6.00;4.50;;;;;;;0.86;72.56;98867.98;24423;1360;3055297;-61
2021/12/26 01:22:12;;;;;;;7.70;4.90;;;;;;;0.66;73.27;98866.33;24458;1361;3054375;-59
2021/12/26 01:24:44;;;;;;;6.40;4.60;;;;;;;0.71;73.25;98861.02;24467;1354;3026476;-60
2021/12/26 01:27:13;;;;;;;6.90;4.30;;;;;;;0.68;73.46;98859.05;24451;1357;3026377;-59
2021/12/26 01:29:43;;;;;;;6.60;4.10;;;;;;;0.59;73.43;98857.58;24442;1354;3027598;-57
2021/12/26 01:32:12;;;;;;;5.30;3.20;;;;;;;0.51;73.36;98856.10;24467;1354;3026556;-60
2021/12/26 01:34:59;;;;;;;4.10;2.70;;;;;;;0.31;74.34;98857.89;24445;1354;3072191;-57
2021/12/26 01:37:41;;;;;;;4.30;3.00;;;;;;;0.24;74.42;98856.17;24469;1354;3049002;-57
2021/12/26 01:40:47;;;;;;;3.60;2.00;;;;;;;0.32;74.46;98865.43;24436;1362;3055250;-59
2021/12/26 01:43:30;;;;;;;4.50;2.80;;;;;;;1.23;72.50;98846.48;24462;1360;3055081;-60
2021/12/26 01:46:07;;;;;;;5.20;2.70;;;;;;;1.45;70.47;98850.05;24505;1357;3058478;-56
2021/12/26 01:48:38;;;;;;;4.10;2.70;;;;;;;1.46;70.34;98842.96;24444;1354;3026936;-58
2021/12/26 01:51:07;;;;;;;5.40;3.20;;;;;;;1.24;70.90;98837.46;24425;1359;3026807;-60
2021/12/26 01:53:37;;;;;;;4.50;2.80;;;;;;;1.00;71.86;98839.77;24431;1355;3056084;-57
2021/12/26 01:56:09;;;;;;;5.10;3.30;;;;;;;0.96;72.15;98842.86;24450;1351;3026969;-56
2021/12/26 01:58:40;;;;;;;4.30;3.10;;;;;;;0.83;72.59;98829.61;24427;1357;3026956;-57
2021/12/26 02:01:21;;;;;;;5.80;3.30;;;;;;;0.87;72.38;98831.75;24468;1354;3051653;-57
2021/12/26 02:03:50;;;;;;;4.30;3.10;;;;;;;0.77;72.59;98846.88;24433;1351;3026772;-57
2021/12/26 02:06:21;;;;;;;6.00;3.60;;;;;;;0.65;73.18;98846.17;24462;1354;3056340;-58
2021/12/26 02:08:51;;;;;;;7.60;4.40;;;;;;;0.61;73.28;98850.81;24511;1354;3026084;-56
2021/12/26 02:11:20;;;;;;;6.00;4.30;;;;;;;0.54;73.84;98856.15;24450;1358;3027083;-55
2021/12/26 02:13:50;;;;;;;5.70;3.90;;;;;;;0.48;73.95;98858.08;24459;1353;3053018;-55
2021/12/26 02:16:19;;;;;;;6.40;4.00;;;;;;;0.55;73.41;98867.36;24449;1354;3028178;-56
2021/12/26 02:18:48;;;;;;;5.40;3.30;;;;;;;0.49;73.58;98867.69;24417;1354;3051369;-57
2021/12/26 02:24:11;;;;;;;6.60;3.30;;;;;;;1.70;70.41;98867.88;24435;1357;3059356;-58
2021/12/26 02:29:29;;;;;;;5.20;3.80;;;;;;;1.56;69.80;98871.11;24455;1361;3055650;-58
2021/12/26 02:31:58;;;;;;;6.50;3.70;;;;;;;1.27;70.51;98879.98;24386;1358;3026643;-56
2021/12/26 02:34:28;;;;;;;5.20;2.90;;;;;;;1.07;71.28;98871.83;24448;1354;3047941;-59
2021/12/26 02:36:56;;;;;;;5.20;3.00;;;;;;;0.89;71.66;98875.33;24458;1357;3026768;-61
2021/12/26 02:39:25;;;;;;;4.70;3.20;;;;;;;0.60;72.10;98889.28;24456;1357;3058750;-58
2021/12/26 02:41:54;;;;;;;4.60;2.90;;;;;;;0.65;72.05;98881.71;24454;1360;3026571;-57
2021/12/26 02:44:23;;;;;;;4.80;3.00;;;;;;;0.37;72.68;98884.94;24483;1360;3051960;-58
2021/12/26 02:46:52;;;;;;;5.30;3.30;;;;;;;0.28;73.10;98891.71;24448;1354;3028486;-58
2021/12/26 02:49:24;;;;;;;4.40;3.10;;;;;;;0.32;73.03;98890.58;24462;1354;3054743;-57
2021/12/26 02:51:54;;;;;;;4.40;3.40;;;;;;;0.30;72.82;98892.89;24507;1357;3026249;-57
2021/12/26 02:54:23;;;;;;;5.80;4.10;;;;;;;0.01;73.57;98893.83;24424;1358;3027278;-57
2021/12/26 02:56:54;;;;;;;4.60;3.00;;;;;;;-0.12;74.38;98884.89;24490;1354;3054071;-60
2021/12/26 02:59:23;;;;;;;5.20;3.50;;;;;;;-0.22;74.60;98883.95;24449;1351;3026392;-58
2021/12/26 03:01:52;;;;;;;4.10;2.70;;;;;;;-0.19;74.94;98890.75;24454;1357;3025955;-58
2021/12/26 03:04:22;;;;;;;4.30;3.00;;;;;;;0.30;73.86;98888.75;24474;1354;3029210;-60
2021/12/26 03:07:02;;;;;;;6.10;3.00;;;;;;;0.87;71.65;98886.23;24456;1357;3026488;-58
2021/12/26 03:09:34;;;;;;;4.60;2.90;;;;;;;0.85;71.16;98889.73;24448;1358;3059480;-56
2021/12/26 03:12:03;;;;;;;4.10;2.70;;;;;;;0.57;71.72;98892.79;24435;1358;3027226;-56
2021/12/26 03:14:32;;;;;;;4.90;3.20;;;;;;;0.34;72.60;98895.17;24458;1354;3026447;-60
2021/12/26 03:17:20;;;;;;;5.30;3.70;;;;;;;0.21;72.99;98890.88;24077;1352;3539294;-59
2021/12/26 03:19:49;;;;;;;6.30;3.30;;;;;;;0.15;73.26;98903.10;24393;1358;3026239;-58
2021/12/26 03:22:18;;;;;;;5.60;3.40;;;;;;;-0.12;74.15;98907.79;24478;1357;3026749;-61
2021/12/26 03:24:51;;;;;;;6.20;3.70;;;;;;;-0.03;73.97;98903.59;24404;1354;3054957;-58
2021/12/26 03:27:20;;;;;;;7.20;3.70;;;;;;;-0.36;74.86;98901.34;24403;1354;3027610;-58
2021/12/26 03:29:49;;;;;;;8.20;5.40;;;;;;;-0.47;75.93;98890.77;24391;1354;3054459;-58
2021/12/26 03:32:19;;;;;;;7.20;4.80;;;;;;;-0.52;76.21;98890.55;24429;1354;3030609;-60
2021/12/26 03:34:49;;;;;;;5.10;4.10;;;;;;;-0.58;76.47;98896.02;24415;1356;3026314;-60
2021/12/26 03:37:18;;;;;;;5.40;3.70;;;;;;;-0.77;77.00;98901.65;24455;1354;3052874;-56
2021/12/26 03:39:48;;;;;;;6.20;3.70;;;;;;;-0.20;75.37;98893.70;24498;1354;3026669;-58
2021/12/26 03:42:21;;;;;;;5.30;3.40;;;;;;;0.37;72.98;98887.67;24416;1357;3029535;-55
2021/12/26 03:44:51;;;;;;;4.90;3.50;;;;;;;0.50;71.60;98897.47;24444;1357;3054991;-59
2021/12/26 03:47:20;;;;;;;7.00;3.80;;;;;;;0.17;71.65;98901.33;24400;1358;3026900;-59
2021/12/26 03:49:50;;;;;;;8.10;4.10;;;;;;;-0.11;71.73;98908.60;24454;1354;3048744;-61
2021/12/26 03:52:22;;;;;;;7.00;4.10;;;;;;;-0.26;72.14;98916.73;24485;1354;3026517;-57
2021/12/26 03:54:52;;;;;;;7.60;4.30;;;;;;;-0.32;72.22;98914.14;24431;1358;3027503;-57
2021/12/26 03:57:23;;;;;;;7.30;5.40;;;;;;;-0.52;72.25;98919.60;24433;1358;3028741;-58
2021/12/26 03:59:52;;;;;;;7.90;5.00;;;;;;;-0.79;72.93;98929.20;24458;1357;3026350;-58
2021/12/26 04:02:21;;;;;;;8.70;5.50;;;;;;;-0.89;73.28;98915.66;24471;1354;3051357;-55
2021/12/26 04:04:50;;;;;;;8.80;5.70;;;;;;;-1.10;73.44;98921.10;24378;1357;3026606;-57
2021/12/26 04:07:19;;;;;;;9.10;5.40;;;;;;;-1.21;73.68;98921.17;24413;1352;3052135;-56
2021/12/26 04:09:49;;;;;;;8.00;5.20;;;;;;;-1.40;73.87;98928.10;24437;1355;3027523;-55
2021/12/26 04:12:18;;;;;;;8.30;5.00;;;;;;;-1.30;73.39;98932.02;24399;1354;3027012;-58
2021/12/26 04:14:47;;;;;;;8.30;5.20;;;;;;;-1.51;74.18;98945.00;24450;1354;3055132;-58
2021/12/26 04:17:20;;;;;;;8.60;5.20;;;;;;;-1.54;74.36;98952.79;24438;1354;3052325;-61
2021/12/26 04:19:51;;;;;;;8.70;5.20;;;;;;;-1.66;74.46;98948.02;24407;1360;3026328;-59
2021/12/26 04:22:20;;;;;;;10.30;5.50;;;;;;;-1.79;75.06;98942.09;24435;1358;3026555;-60
2021/12/26 04:24:49;;;;;;;9.40;5.40;;;;;;;-1.79;74.79;98940.89;24382;1358;3050565;-58
2021/12/26 04:27:18;;;;;;;8.80;5.90;;;;;;;-1.78;74.88;98948.61;24386;1358;3027247;-58
2021/12/26 04:29:46;;;;;;;9.40;5.40;;;;;;;-1.76;74.05;98961.61;24445;1354;3055307;-57
2021/12/26 04:32:16;;;;;;;9.00;5.70;;;;;;;-1.86;74.24;98948.58;24404;1358;3026839;-58
2021/12/26 04:34:45;;;;;;;10.20;5.40;;;;;;;-1.95;74.58;98944.10;24393;1361;3051915;-57
2021/12/26 04:37:14;;;;;;;5.20;4.00;;;;;;;-1.32;73.31;98962.13;24390;1361;3026164;-58
2021/12/26 04:39:43;;;;;;;11.00;5.60;;;;;;;-0.82;70.74;98947.84;24367;1361;3026350;-58
2021/12/26 04:42:12;;;;;;;10.00;5.10;;;;;;;-0.53;69.95;98942.69;24380;1354;3048998;-60
2021/12/26 04:44:56;;;;;;;7.50;5.20;;;;;;;-0.61;69.53;98945.45;24380;1355;3053147;-55
2021/12/26 04:47:25;;;;;;;10.60;5.40;;;;;;;-0.66;69.14;98949.89;24423;1357;3026332;-55
2021/12/26 04:49:55;;;;;;;9.80;5.90;;;;;;;-0.94;69.74;98953.09;24397;1361;3052686;-58
2021/12/26 04:52:27;;;;;;;8.90;5.10;;;;;;;-0.99;70.00;98973.14;24394;1355;3026270;-56
2021/12/26 04:54:57;;;;;;;11.30;6.60;;;;;;;-1.50;71.23;98979.50;24420;1357;3026868;-57
2021/12/26 04:57:27;;;;;;;10.20;6.50;;;;;;;-1.56;71.84;98979.27;24437;1359;3026546;-56
2021/12/26 04:59:56;;;;;;;10.80;6.70;;;;;;;-1.61;72.09;98985.02;24443;1361;3027004;-56
2021/12/26 05:02:28;;;;;;;12.00;6.90;;;;;;;-1.77;72.94;98992.53;24438;1354;3027759;-56
2021/12/26 05:04:57;;;;;;;10.70;5.80;;;;;;;-1.79;72.58;98999.27;24433;1354;3067893;-59
2021/12/26 05:07:26;;;;;;;12.50;6.90;;;;;;;-1.84;72.59;99000.23;24419;1354;3026443;-58
2021/12/26 05:09:55;;;;;;;9.40;6.00;;;;;;;-2.03;73.03;98991.25;24435;1354;3053585;-57
2021/12/26 05:12:25;;;;;;;11.60;6.10;;;;;;;-1.88;72.90;99004.41;24402;1354;3026614;-58
2021/12/26 05:14:54;;;;;;;7.60;5.60;;;;;;;-1.82;72.44;99008.59;24442;1357;3026870;-58
2021/12/26 05:17:23;;;;;;;9.90;6.10;;;;;;;-1.93;72.71;99012.55;24423;1354;3055058;-56
2021/12/26 05:19:53;;;;;;;10.50;5.60;;;;;;;-1.95;72.59;99018.24;24453;1354;3027143;-56
2021/12/26 05:22:22;;;;;;;10.60;5.80;;;;;;;-1.92;72.52;99027.83;24428;1354;3029082;-57
2021/12/26 05:24:51;;;;;;;9.90;6.00;;;;;;;-1.99;72.74;99027.41;24394;1354;3049418;-57
2021/12/26 05:27:20;;;;;;;9.70;6.10;;;;;;;-2.01;72.53;99038.61;24398;1358;3026405;-57
2021/12/26 05:29:48;;;;;;;10.80;6.10;;;;;;;-2.05;72.57;99036.79;24408;1357;3052583;-60
2021/12/26 05:32:27;;;;;;;9.60;5.60;;;;;;;-2.03;72.81;99026.13;24399;1362;3054042;-59
2021/12/26 05:34:56;;;;;;;10.60;5.20;;;;;;;-1.95;72.37;99022.71;24428;1351;3026550;-55
2021/12/26 05:37:26;;;;;;;10.70;6.20;;;;;;;-2.00;72.30;99026.06;24394;1356;3056196;-58
2021/12/26 05:39:56;;;;;;;9.30;5.40;;;;;;;-1.90;72.22;99032.77;24415;1354;3029929;-59
2021/12/26 05:42:26;;;;;;;9.40;5.50;;;;;;;-1.84;71.83;99027.86;24401;1354;3052067;-56
2021/12/26 05:44:55;;;;;;;9.50;5.60;;;;;;;-1.90;72.08;99041.36;24395;1354;3026863;-55
2021/12/26 05:47:26;;;;;;;8.60;6.10;;;;;;;-1.80;72.22;99034.98;24398;1360;3055454;-60
2021/12/26 05:50:03;;;;;;;9.20;4.80;;;;;;;-1.12;70.32;99039.75;24435;1361;3048753;-62
2021/12/26 05:52:32;;;;;;;7.60;5.10;;;;;;;-0.39;67.82;99041.84;24481;1354;3026256;-57
2021/12/26 05:55:20;;;;;;;7.60;5.40;;;;;;;-0.32;66.85;99033.75;24440;1354;3051443;-59
2021/12/26 05:57:51;;;;;;;10.50;5.10;;;;;;;-0.45;66.90;99031.30;24460;1351;3027072;-59
2021/12/26 06:00:20;;;;;;;10.20;5.50;;;;;;;-0.60;67.43;99039.20;24443;1354;3026221;-57
2021/12/26 06:02:50;;;;;;;7.90;5.20;;;;;;;-0.76;67.72;99058.62;24413;1354;3026570;-59
2021/12/26 06:05:20;;;;;;;10.90;6.00;;;;;;;-0.82;67.96;99074.58;24419;1354;3068116;-59
2021/12/26 06:07:50;;;;;;;8.60;5.40;;;;;;;-0.99;68.13;99100.54;24424;1355;3026929;-59
2021/12/26 06:10:19;;;;;;;9.20;4.60;;;;;;;-1.05;68.48;99132.96;24425;1354;3027311;-57
2021/12/26 06:12:48;;;;;;;9.70;5.50;;;;;;;-1.31;69.20;99148.39;24459;1357;3026392;-56
2021/12/26 06:15:18;;;;;;;10.70;6.20;;;;;;;-1.46;69.72;99144.52;24446;1354;3048443;-58
2021/12/26 06:17:47;;;;;;;11.20;7.20;;;;;;;-1.51;69.83;99141.16;24419;1356;3026187;-58
2021/12/26 06:20:16;;;;;;;10.30;6.30;;;;;;;-1.59;70.31;99144.57;24406;1354;3070380;-57
2021/12/26 06:22:51;;;;;;;12.70;7.40;;;;;;;-1.60;70.09;99131.86;24462;1359;3051746;-56
2021/12/26 06:25:40;;;;;;;9.40;5.90;;;;;;;-1.68;70.29;99116.88;24453;1358;3055173;-58
2021/12/26 06:28:29;;;;;;;11.80;6.60;;;;;;;-1.84;70.96;99111.64;24444;1357;3051926;-59
2021/12/26 06:31:15;;;;;;;10.20;6.50;;;;;;;-1.97;71.37;99117.49;24458;1354;3055178;-58
2021/12/26 06:34:03;;;;;;;12.10;6.80;;;;;;;-2.26;72.33;99131.14;24393;1354;3054175;-59
2021/12/26 06:37:08;;;;;;;10.00;6.70;;;;;;;-2.43;73.05;99149.04;24316;1366;3055577;-59
2021/12/26 06:39:56;;;;;;;10.20;6.00;;;;;;;-2.38;73.08;99148.64;24449;1357;3054858;-59
2021/12/26 06:42:51;;;;;;;10.40;5.80;;;;;;;-2.45;73.01;99145.80;24439;1362;3071357;-57
2021/12/26 06:45:39;;;;;;;10.80;6.00;;;;;;;-2.35;73.13;99150.83;24439;1359;3053315;-58
2021/12/26 06:48:27;;;;;;;10.20;6.20;;;;;;;-2.20;72.24;99157.65;24401;1355;3055092;-58
2021/12/26 06:50:56;;;;;;;11.70;5.70;;;;;;;-2.32;72.18;99158.86;24436;1355;3026529;-56
2021/12/26 06:53:25;;;;;;;15.80;7.80;;;;;;;-2.35;72.43;99161.13;24446;1356;3048979;-57
2021/12/26 06:55:54;;;;;;;12.70;7.10;;;;;;;-2.32;72.45;99166.55;24451;1360;3026665;-59
2021/12/26 06:58:23;;;;;;;15.10;7.70;;;;;;;-2.24;71.26;99161.31;24436;1358;3070465;-58
2021/12/26 07:00:52;;;;;;;14.30;7.10;;;;;;;-2.14;70.64;99169.42;24441;1358;3026691;-60
2021/12/26 07:03:21;;;;;;;14.40;7.30;;;;;;;-2.00;70.67;99155.84;24442;1360;3051558;-58
2021/12/26 07:05:50;;;;;;;11.90;6.10;;;;;;;-1.92;70.09;99158.98;24464;1359;3026745;-61
2021/12/26 07:08:24;;;;;;;10.40;5.40;;;;;;;-2.02;69.41;99171.48;24475;1355;3049138;-58
2021/12/26 07:10:59;;;;;;;12.20;5.70;;;;;;;-2.27;69.56;99176.80;24459;1356;3051987;-58
2021/12/26 07:13:30;;;;;;;12.90;5.80;;;;;;;-2.34;69.24;99176.89;24464;1359;3026139;-60
2021/12/26 07:15:59;;;;;;;13.20;6.00;;;;;;;-2.35;69.23;99168.50;24396;1350;3028332;-59
2021/12/26 07:18:29;;;;;;;15.70;6.90;;;;;;;-2.40;68.39;99180.73;24498;1360;3053846;-60
2021/12/26 07:20:57;;;;;;;16.70;7.30;;;;;;;-2.55;69.26;99182.80;24432;1359;3026655;-62
2021/12/26 07:23:49;;;;;;;15.60;7.20;;;;;;;-2.63;69.70;99197.98;24434;1350;3048184;-60
2021/12/26 07:26:23;;;;;;;16.80;7.30;;;;;;;-2.64;70.22;99192.52;24492;1354;3026715;-58
2021/12/26 07:28:53;;;;;;;16.30;7.40;;;;;;;-2.57;70.30;99189.70;24467;1354;3028099;-56
2021/12/26 07:31:28;;;;;;;;;;;;;;;-2.29;69.41;99184.04;24464;1353;3056790;-59
2021/12/26 07:34:04;;;;;;;11.00;5.80;;;;;;;-2.31;68.69;99177.36;24458;1351;3049837;-59
2021/12/26 07:36:36;;;;;;;7.10;4.40;;;;;;;-2.41;68.35;99174.40;24481;1360;3026573;-59
2021/12/26 07:39:28;;;;;;;7.20;3.90;;;;;;;-2.55;68.60;99189.66;24490;1361;3054332;-58
2021/12/26 07:41:57;;;;;;;8.80;4.40;;;;;;;-2.66;69.20;99195.28;24487;1362;3026924;-60
2021/12/26 07:44:44;;;;;;;10.10;5.30;;;;;;;-2.62;69.40;99189.40;24422;1354;3055673;-60
2021/12/26 07:47:28;;;;;;;10.10;4.70;;;;;;;-2.55;68.98;99191.56;24408;1351;3050061;-59
2021/12/26 07:50:02;;;;;;;9.60;5.10;;;;;;;-2.37;67.96;99188.41;24447;1357;3070009;-61
2021/12/26 07:52:58;;;;;;;10.20;5.00;;;;;;;-2.34;67.81;99190.27;24381;1354;3052056;-58
2021/12/26 07:55:45;;;;;;;8.10;4.70;;;;;;;-2.48;67.93;99193.70;24438;1361;3052363;-60
2021/12/26 07:58:34;;;;;;;11.30;6.30;;;;;;;-2.58;68.29;99199.31;24413;1354;3054233;-59
2021/12/26 08:01:22;;;;;;;10.80;5.80;;;;;;;-2.49;68.64;99192.50;24429;1360;3058896;-60
2021/12/26 08:04:02;;;;;;;9.90;5.80;;;;;;;-2.61;69.04;99197.11;24469;1355;3052928;-61
2021/12/26 08:06:50;;;;;;;10.20;6.20;;;;;;;-2.61;69.77;99202.26;24437;1361;3054685;-59
2021/12/26 08:09:19;;;;;;;11.00;6.30;;;;;;;-2.52;69.95;99208.15;24467;1357;3026364;-59
2021/12/26 08:11:49;;;;;;;9.60;5.70;;;;;;;-2.41;70.07;99212.83;24446;1353;3048857;-59
2021/12/26 08:14:18;;;;;;;11.70;6.00;;;;;;;-2.28;70.03;99215.41;24505;1360;3026732;-59
2021/12/26 08:16:48;;;;;;;10.20;6.30;;;;;;;-2.19;69.64;99214.09;24450;1359;3026543;-59
2021/12/26 08:19:17;;;;;;;13.20;6.10;;;;;;;-1.96;69.54;99225.47;24414;1359;3026641;-59
2021/12/26 08:21:51;;;;;;;14.30;6.90;;;;;;;-1.96;69.40;99235.42;24440;1359;3026903;-59
2021/12/26 08:24:22;;;;;;;16.30;8.20;;;;;;;-2.08;69.69;99226.66;24464;1359;3027064;-57
2021/12/26 08:26:51;;;;;;;23.10;9.70;;;;;;;-2.37;70.56;99228.73;24482;1361;3026669;-59
2021/12/26 08:29:22;;;;;;;20.80;9.90;;;;;;;-2.44;71.26;99222.82;24448;1361;3026630;-59
2021/12/26 08:31:53;;;;;;;14.80;8.10;;;;;;;-2.46;71.25;99222.84;24454;1360;3030586;-62
2021/12/26 08:34:23;;;;;;;15.20;7.90;;;;;;;-2.58;71.69;99220.40;24414;1360;3027284;-60
2021/12/26 08:37:00;;;;;;;14.50;6.90;;;;;;;-2.69;72.12;99222.58;24413;1360;3026465;-58
2021/12/26 08:39:40;;;;;;;13.20;7.10;;;;;;;-2.72;72.21;99221.25;24409;1359;3068756;-57
2021/12/26 08:42:11;;;;;;;15.50;6.40;;;;;;;-2.75;72.26;99224.87;24445;1360;3052424;-60
2021/12/26 08:44:40;;;;;;;13.00;6.80;;;;;;;-2.80;72.54;99229.72;24457;1358;3027031;-58
2021/12/26 08:47:10;;;;;;;12.70;7.00;;;;;;;-2.18;71.37;99225.05;24396;1358;3027640;-61
2021/12/26 08:49:39;;;;;;;17.80;8.10;;;;;;;-1.97;70.04;99230.11;24435;1357;3026756;-60
2021/12/26 08:52:08;;;;;;;22.20;10.00;;;;;;;-1.89;69.07;99227.77;24425;1355;3026571;-55
2021/12/26 08:54:37;;;;;;;28.50;11.60;;;;;;;-1.99;69.04;99228.94;24390;1358;3053679;-58
2021/12/26 08:57:08;;;;;;;23.60;10.10;;;;;;;-2.00;68.81;99237.02;24403;1356;3026551;-59
2021/12/26 08:59:37;;;;;;;30.40;10.70;;;;;;;-2.23;69.36;99236.96;24451;1354;3028689;-59
2021/12/26 09:02:09;;;;;;;23.60;9.60;;;;;;;-2.08;69.09;99233.88;24481;1359;3026407;-58
2021/12/26 09:04:39;;;;;;;18.20;9.20;;;;;;;-2.19;68.98;99228.18;24432;1354;3025976;-56
2021/12/26 09:07:22;;;;;;;20.20;8.90;;;;;;;-2.36;70.02;99228.72;24456;1360;3071464;-57
2021/12/26 09:10:11;;;;;;;14.70;8.20;;;;;;;-2.02;68.51;99230.36;24428;1354;3051886;-56
2021/12/26 09:12:43;;;;;;;16.60;7.00;;;;;;;-1.93;67.58;99230.59;24489;1359;3026938;-58
2021/12/26 09:15:12;;;;;;;18.50;7.50;;;;;;;-2.13;66.76;99230.51;24461;1355;3027007;-59
2021/12/26 09:17:41;;;;;;;14.30;8.30;;;;;;;-2.10;66.94;99231.66;24435;1358;3047054;-59
2021/12/26 09:20:10;;;;;;;13.70;7.10;;;;;;;-1.96;66.10;99231.30;24425;1359;3026335;-59
2021/12/26 09:22:40;;;;;;;12.60;6.50;;;;;;;-2.00;65.31;99232.91;24473;1354;3070739;-59
2021/12/26 09:25:10;;;;;;;12.00;7.10;;;;;;;-2.05;65.31;99227.31;24472;1353;3026487;-57
2021/12/26 09:27:39;;;;;;;14.70;6.80;;;;;;;-2.10;65.30;99228.92;24472;1357;3026117;-57
2021/12/26 09:30:11;;;;;;;14.20;7.30;;;;;;;-2.17;65.16;99231.05;24489;1355;3026713;-56
2021/12/26 09:32:40;;;;;;;12.70;6.90;;;;;;;-2.19;65.20;99229.71;24465;1361;3030795;-56
2021/12/26 09:35:10;;;;;;;15.60;8.50;;;;;;;-2.25;65.36;99231.52;24461;1358;3027274;-60
2021/12/26 09:37:39;;;;;;;14.60;8.40;;;;;;;-2.03;65.35;99233.98;24457;1361;3054255;-59
2021/12/26 09:40:09;;;;;;;14.50;7.90;;;;;;;-1.94;65.31;99235.05;24465;1360;3026657;-58
2021/12/26 09:42:39;;;;;;;14.80;7.20;;;;;;;-1.92;64.44;99233.31;24489;1360;3052257;-56
2021/12/26 09:45:09;;;;;;;15.60;8.60;;;;;;;-1.98;64.37;99231.17;24462;1358;3026636;-56
2021/12/26 09:47:38;;;;;;;14.50;8.10;;;;;;;-1.95;64.77;99231.64;24461;1360;3052187;-60
2021/12/26 09:50:09;;;;;;;16.00;8.90;;;;;;;-1.88;64.43;99237.21;24456;1358;3026472;-60
2021/12/26 09:52:42;;;;;;;17.40;9.10;;;;;;;-1.80;63.84;99234.71;24427;1361;3026371;-58
2021/12/26 09:55:12;;;;;;;18.90;8.90;;;;;;;-2.03;63.72;99232.95;24473;1360;3057259;-60
2021/12/26 09:57:41;;;;;;;17.50;7.80;;;;;;;-2.03;63.94;99231.75;24465;1359;3026633;-59
2021/12/26 10:00:31;;;;;;;15.40;9.00;;;;;;;-2.02;63.73;99229.33;24487;1354;3054090;-59
2021/12/26 10:03:14;;;;;;;16.30;8.70;;;;;;;-1.83;63.36;99227.02;24471;1354;3057124;-60
2021/12/26 10:05:56;;;;;;;15.00;8.00;;;;;;;-1.67;62.94;99223.87;24441;1348;3051014;-55
2021/12/26 10:08:26;;;;;;;14.00;7.40;;;;;;;-1.27;62.12;99220.69;24427;1358;3054727;-56
2021/12/26 10:11:04;;;;;;;14.10;7.60;;;;;;;-1.28;60.70;99220.69;24418;1355;3027358;-57
2021/12/26 10:13:40;;;;;;;10.20;6.20;;;;;;;-1.13;59.37;99217.52;24456;1360;3071307;-58
2021/12/26 10:17:51;;;;;;;14.00;7.80;;;;;;;-1.38;58.96;99219.65;30683;1358;3026044;-73
2021/12/26 10:20:20;;;;;;;16.30;9.80;;;;;;;-1.07;59.06;99214.83;24431;1362;3026289;-71
2021/12/26 10:22:49;;;;;;;11.90;7.20;;;;;;;-0.84;57.97;99208.06;24456;1355;3028295;-73
2021/12/26 10:25:18;;;;;;;12.60;7.10;;;;;;;-0.82;58.38;99207.85;24463;1358;3049576;-74
2021/12/26 10:27:48;;;;;;;11.10;5.80;;;;;;;-0.80;59.07;99205.42;24485;1359;3027385;-73
2021/12/26 10:30:22;;;;;;;10.50;6.40;;;;;;;-0.98;58.31;99199.71;24244;1358;3070437;-74
2021/12/26 10:33:01;;;;;;;11.40;6.30;;;;;;;-1.01;59.02;99201.32;24470;1358;3053124;-73
2021/12/26 10:35:31;;;;;;;10.40;6.40;;;;;;;-0.90;58.84;99200.62;24542;1358;3025941;-73
2021/12/26 10:37:59;;;;;;;11.40;6.20;;;;;;;-0.73;58.64;99205.13;24471;1355;3067938;-72
2021/12/26 10:40:31;;;;;;;14.90;7.30;;;;;;;-0.55;58.21;99206.33;24501;1358;3026506;-74
2021/12/26 10:43:09;;;;;;;13.80;6.60;;;;;;;-0.49;57.38;99207.59;24495;1356;3051307;-72
2021/12/26 10:45:38;;;;;;;12.00;6.60;;;;;;;-0.51;57.20;99202.11;24474;1358;3026473;-73
2021/12/26 10:48:07;;;;;;;12.40;6.20;;;;;;;-0.48;56.85;99204.31;24530;1358;3026588;-72
2021/12/26 10:50:40;;;;;;;9.10;5.00;;;;;;;-0.46;55.92;99215.95;24520;1355;3052350;-73
2021/12/26 10:53:12;;;;;;;11.00;5.50;;;;;;;-0.84;55.39;99219.59;24489;1355;3028613;-73
2021/12/26 10:55:43;;;;;;;11.70;5.90;;;;;;;-0.90;55.38;99224.17;24488;1355;3028795;-73
2021/12/26 10:58:13;;;;;;;8.40;4.90;;;;;;;-0.91;56.14;99219.38;24481;1354;3026934;-73
2021/12/26 11:00:43;;;;;;;10.00;5.90;;;;;;;-0.92;55.22;99221.61;24470;1358;3030588;-72
2021/12/26 11:03:18;;;;;;;16.00;5.90;;;;;;;-0.81;54.96;99225.39;24545;1359;3027293;-73
2021/12/26 11:05:48;;;;;;;11.70;6.30;;;;;;;-0.97;55.33;99226.86;24527;1355;3051582;-72
2021/12/26 11:08:24;;;;;;;10.50;5.70;;;;;;;-1.08;55.59;99229.98;24533;1355;3025954;-73
2021/12/26 11:10:54;;;;;;;9.80;5.20;;;;;;;-1.22;56.06;99239.49;24472;1358;3054509;-71
2021/12/26 11:13:43;;;;;;;9.80;5.20;;;;;;;-1.11;55.88;99238.45;24502;1359;3068763;-73
2021/12/26 11:16:13;;;;;;;7.90;4.50;;;;;;;-1.05;54.88;99241.29;24499;1355;3026841;-75
2021/12/26 11:18:42;;;;;;;7.90;4.50;;;;;;;-1.35;54.82;99249.33;24524;1356;3048875;-73
2021/12/26 11:21:13;;;;;;;11.70;5.50;;;;;;;-1.46;55.30;99249.84;24516;1359;3026411;-72
2021/12/26 11:23:43;;;;;;;11.10;5.60;;;;;;;-1.49;55.36;99250.40;24527;1355;3026533;-73
2021/12/26 11:26:15;;;;;;;7.00;4.00;;;;;;;-1.34;55.09;99250.34;24564;1359;3026824;-74
2021/12/26 11:28:46;;;;;;;12.50;5.50;;;;;;;-1.23;54.40;99258.09;24515;1358;3027012;-74
2021/12/26 11:31:24;;;;;;;9.40;4.50;;;;;;;-1.34;54.20;99262.20;24520;1356;3026453;-73
2021/12/26 11:33:59;;;;;;;8.10;4.30;;;;;;;-1.34;54.45;99263.39;24527;1357;3050250;-73
2021/12/26 11:36:29;;;;;;;13.60;4.90;;;;;;;-1.33;54.34;99264.23;24486;1356;3053935;-72
2021/12/26 11:39:25;;;;;;;10.30;4.60;;;;;;;-1.17;54.34;99271.38;24539;1355;3053573;-72
2021/12/26 11:42:33;;;;;;;10.20;5.00;;;;;;;-1.10;54.87;99268.20;24382;1354;3071658;-73
2021/12/26 11:45:27;;;;;;;9.80;4.00;;;;;;;-0.94;53.98;99266.55;24492;1355;3049594;-73
2021/12/26 11:48:44;;;;;;;6.80;4.00;;;;;;;-0.81;53.09;99267.34;24511;1353;3051387;-72